Map

Track Data

SID SEASON NUMBER BASIN SUBBASIN NAME ISO_TIME NATURE LAT LON WMO_WIND WMO_PRES WMO_AGENCY TRACK_TYPE DIST2LAND LANDFALL IFLAG USA_AGENCY USA_ATCF_ID USA_LAT USA_LON USA_RECORD USA_STATUS USA_WIND USA_PRES USA_SSHS USA_R34_NE USA_R34_SE USA_R34_SW USA_R34_NW USA_R50_NE USA_R50_SE USA_R50_SW USA_R50_NW USA_R64_NE USA_R64_SE USA_R64_SW USA_R64_NW USA_POCI USA_ROCI USA_RMW USA_EYE TOKYO_LAT TOKYO_LON TOKYO_GRADE TOKYO_WIND TOKYO_PRES TOKYO_R50_DIR TOKYO_R50_LONG TOKYO_R50_SHORT TOKYO_R30_DIR TOKYO_R30_LONG TOKYO_R30_SHORT TOKYO_LAND CMA_LAT CMA_LON CMA_CAT CMA_WIND CMA_PRES HKO_LAT HKO_LON HKO_CAT HKO_WIND HKO_PRES NEWDELHI_LAT NEWDELHI_LON NEWDELHI_GRADE NEWDELHI_WIND NEWDELHI_PRES NEWDELHI_CI NEWDELHI_DP NEWDELHI_POCI REUNION_LAT REUNION_LON REUNION_TYPE REUNION_WIND REUNION_PRES REUNION_TNUM REUNION_CI REUNION_RMW REUNION_R34_NE REUNION_R34_SE REUNION_R34_SW REUNION_R34_NW REUNION_R50_NE REUNION_R50_SE REUNION_R50_SW REUNION_R50_NW REUNION_R64_NE REUNION_R64_SE REUNION_R64_SW REUNION_R64_NW BOM_LAT BOM_LON BOM_TYPE BOM_WIND BOM_PRES BOM_TNUM BOM_CI BOM_RMW BOM_R34_NE BOM_R34_SE BOM_R34_SW BOM_R34_NW BOM_R50_NE BOM_R50_SE BOM_R50_SW BOM_R50_NW BOM_R64_NE BOM_R64_SE BOM_R64_SW BOM_R64_NW BOM_ROCI BOM_POCI BOM_EYE BOM_POS_METHOD BOM_PRES_METHOD NADI_LAT NADI_LON NADI_CAT NADI_WIND NADI_PRES WELLINGTON_LAT WELLINGTON_LON WELLINGTON_WIND WELLINGTON_PRES DS824_LAT DS824_LON DS824_STAGE DS824_WIND DS824_PRES TD9636_LAT TD9636_LON TD9636_STAGE TD9636_WIND TD9636_PRES TD9635_LAT TD9635_LON TD9635_WIND TD9635_PRES TD9635_ROCI NEUMANN_LAT NEUMANN_LON NEUMANN_CLASS NEUMANN_WIND NEUMANN_PRES MLC_LAT MLC_LON MLC_CLASS MLC_WIND MLC_PRES USA_GUST BOM_GUST BOM_GUST_PER REUNION_GUST REUNION_GUST_PER USA_SEAHGT USA_SEARAD_NE USA_SEARAD_SE USA_SEARAD_SW USA_SEARAD_NW STORM_SPEED STORM_DIR
1900297N15296 1900 39 NA CS NOT_NAMED 1900-10-24 00:00:00 TS 15.0000 -64.5000 30 hurdat_atl main 363 330 O_____________ hurdat_atl AL071900 15.0000 -64.5000 TD 30 -1 8 307
1900297N15296 1900 39 NA CS NOT_NAMED 1900-10-24 03:00:00 TS 15.2501 -64.8399 main 320 286 P_____________ AL071900 15.2501 -64.8399 TD 30 -1 8 307
1900297N15296 1900 39 NA CS NOT_NAMED 1900-10-24 06:00:00 TS 15.5000 -65.2000 30 hurdat_atl main 286 254 O_____________ hurdat_atl AL071900 15.5000 -65.2000 TD 30 -1 9 305
1900297N15296 1900 39 NA CS NOT_NAMED 1900-10-24 09:00:00 TS 15.7500 -65.5926 main 254 213 P_____________ AL071900 15.7500 -65.5926 TD 30 -1 9 303
1900297N15296 1900 39 NA CS NOT_NAMED 1900-10-24 12:00:00 TS 16.0000 -66.0000 30 hurdat_atl main 213 190 O_____________ hurdat_atl AL071900 16.0000 -66.0000 TD 30 -1 9 303
1900297N15296 1900 39 NA CS NOT_NAMED 1900-10-24 15:00:00 TS 16.2499 -66.4001 main 191 157 P_____________ AL071900 16.2499 -66.4001 TD 30 -1 9 303
1900297N15296 1900 39 NA CS NOT_NAMED 1900-10-24 18:00:00 TS 16.5000 -66.8000 30 hurdat_atl main 157 134 O_____________ hurdat_atl AL071900 16.5000 -66.8000 TD 30 -1 9 303
1900297N15296 1900 39 NA CS NOT_NAMED 1900-10-24 21:00:00 TS 16.7499 -67.1926 main 134 105 P_____________ AL071900 16.7499 -67.1926 TD 30 -1 9 303
1900297N15296 1900 39 NA CS NOT_NAMED 1900-10-25 00:00:00 TS 17.0000 -67.6000 30 hurdat_atl main 109 104 O_____________ hurdat_atl AL071900 17.0000 -67.6000 TD 30 -1 10 302
1900297N15296 1900 39 NA CS NOT_NAMED 1900-10-25 03:00:00 TS 17.2499 -68.0351 main 115 79 P_____________ AL071900 17.2499 -68.0351 TD 30 -1 10 300
1900297N15296 1900 39 NA CS NOT_NAMED 1900-10-25 06:00:00 TS 17.5000 -68.5000 30 hurdat_atl main 79 55 O_____________ hurdat_atl AL071900 17.5000 -68.5000 TD 30 -1 10 299
1900297N15296 1900 39 NA CS NOT_NAMED 1900-10-25 09:00:00 TS 17.7499 -68.9926 main 59 45 P_____________ AL071900 17.7499 -68.9926 TD 30 -1 11 298
1900297N15296 1900 39 NA CS NOT_NAMED 1900-10-25 12:00:00 TS 18.0000 -69.5000 30 hurdat_atl main 45 15 O_____________ hurdat_atl AL071900 18.0000 -69.5000 TD 30 -1 11 298
1900297N15296 1900 39 NA CS NOT_NAMED 1900-10-25 15:00:00 TS 18.2499 -70.0001 main 15 0 P_____________ AL071900 18.2499 -70.0001 TD 30 -1 11 298
1900297N15296 1900 39 NA NA NOT_NAMED 1900-10-25 18:00:00 TS 18.5000 -70.5000 30 hurdat_atl main 0 0 O_____________ hurdat_atl AL071900 18.5000 -70.5000 TD 30 -1 11 298
1900297N15296 1900 39 NA NA NOT_NAMED 1900-10-25 21:00:00 TS 18.7499 -71.0001 main 0 0 P_____________ AL071900 18.7499 -71.0001 TD 30 -1 11 298
1900297N15296 1900 39 NA NA NOT_NAMED 1900-10-26 00:00:00 TS 19.0000 -71.5000 30 hurdat_atl main 0 0 O_____________ hurdat_atl AL071900 19.0000 -71.5000 TD 30 -1 11 298
1900297N15296 1900 39 NA NA NOT_NAMED 1900-10-26 03:00:00 TS 19.2500 -72.0151 main 0 0 P_____________ AL071900 19.2500 -72.0151 TD 30 -1 11 298
1900297N15296 1900 39 NA NA NOT_NAMED 1900-10-26 06:00:00 TS 19.5000 -72.5000 30 hurdat_atl main 0 0 O_____________ hurdat_atl AL071900 19.5000 -72.5000 TD 30 -1 10 300
1900297N15296 1900 39 NA NA NOT_NAMED 1900-10-26 09:00:00 TS 19.7424 -72.9302 main 0 0 P_____________ AL071900 19.7424 -72.9302 TD 32 -1 9 304
1900297N15296 1900 39 NA NA NOT_NAMED 1900-10-26 12:00:00 TS 20.0000 -73.3000 35 hurdat_atl main 22 22 O_____________ hurdat_atl AL071900 20.0000 -73.3000 TS 35 0 9 310
1900297N15296 1900 39 NA NA NOT_NAMED 1900-10-26 15:00:00 TS 20.2924 -73.6226 main 53 38 P_____________ AL071900 20.2924 -73.6226 TS 37 0 8 317
1900297N15296 1900 39 NA NA NOT_NAMED 1900-10-26 18:00:00 TS 20.6000 -73.9000 40 hurdat_atl main 45 38 O_____________ hurdat_atl AL071900 20.6000 -73.9000 TS 40 0 8 320
1900297N15296 1900 39 NA NA NOT_NAMED 1900-10-26 21:00:00 TS 20.9000 -74.1651 main 53 51 P_____________ AL071900 20.9000 -74.1651 TS 40 0 8 322
1900297N15296 1900 39 NA NA NOT_NAMED 1900-10-27 00:00:00 TS 21.2000 -74.4000 40 hurdat_atl main 73 73 O_____________ hurdat_atl AL071900 21.2000 -74.4000 TS 40 0 7 324
1900297N15296 1900 39 NA NA NOT_NAMED 1900-10-27 03:00:00 TS 21.4925 -74.6226 main 101 100 P_____________ AL071900 21.4925 -74.6226 TS 40 0 7 328
1900297N15296 1900 39 NA NA NOT_NAMED 1900-10-27 06:00:00 TS 21.8000 -74.8000 40 hurdat_atl main 121 121 O_____________ hurdat_atl AL071900 21.8000 -74.8000 TS 40 0 7 334
1900297N15296 1900 39 NA NA NOT_NAMED 1900-10-27 09:00:00 TS 22.1125 -74.9449 main 142 137 P_____________ AL071900 22.1125 -74.9449 TS 40 0 7 345
1900297N15296 1900 39 NA NA NOT_NAMED 1900-10-27 12:00:00 TS 22.5000 -75.0000 40 hurdat_atl main 178 178 O_____________ hurdat_atl AL071900 22.5000 -75.0000 TS 40 0 8 1
1900297N15296 1900 39 NA NA NOT_NAMED 1900-10-27 15:00:00 TS 22.9525 -74.9448 main 234 234 P_____________ AL071900 22.9525 -74.9448 TS 42 0 11 10
1900297N15296 1900 39 NA NA NOT_NAMED 1900-10-27 18:00:00 TS 23.6000 -74.8000 45 hurdat_atl main 301 301 O_____________ hurdat_atl AL071900 23.6000 -74.8000 TS 45 0 16 10
1900297N15296 1900 39 NA NA NOT_NAMED 1900-10-27 21:00:00 TS 24.5625 -74.6300 main 313 313 P_____________ AL071900 24.5625 -74.6300 TS 45 0 20 10
1900297N15296 1900 39 NA NA NOT_NAMED 1900-10-28 00:00:00 TS 25.6000 -74.4000 45 hurdat_atl main 354 354 O_____________ hurdat_atl AL071900 25.6000 -74.4000 TS 45 0 19 13
1900297N15296 1900 39 NA NA NOT_NAMED 1900-10-28 03:00:00 TS 26.4148 -74.1439 main 415 415 P_____________ AL071900 26.4148 -74.1439 TS 45 0 17 19
1900297N15296 1900 39 NA NA NOT_NAMED 1900-10-28 06:00:00 TS 27.2000 -73.8000 45 hurdat_atl main 480 480 O_____________ hurdat_atl AL071900 27.2000 -73.8000 TS 45 0 18 23
1900297N15296 1900 39 NA NA NOT_NAMED 1900-10-28 09:00:00 TS 28.0323 -73.3582 main 560 560 P_____________ AL071900 28.0323 -73.3582 TS 45 0 20 26
1900297N15296 1900 39 NA NA NOT_NAMED 1900-10-28 12:00:00 TS 29.0000 -72.8000 45 hurdat_atl main 673 652 O_____________ hurdat_atl AL071900 29.0000 -72.8000 TS 45 0 24 26
1900297N15296 1900 39 NA NA NOT_NAMED 1900-10-28 15:00:00 TS 30.1369 -72.1785 main 652 599 P_____________ AL071900 30.1369 -72.1785 TS 45 0 28 26
1900297N15296 1900 39 NA NA NOT_NAMED 1900-10-28 18:00:00 TS 31.5000 -71.4000 45 hurdat_atl main 592 553 O_____________ hurdat_atl AL071900 31.5000 -71.4000 TS 45 0 33 27
1900297N15296 1900 39 NA NA NOT_NAMED 1900-10-28 21:00:00 TS 33.0982 -70.3960 main 555 547 P_____________ AL071900 33.0982 -70.3960 TS 45 0 37 28
1900297N15296 1900 39 NA NA NOT_NAMED 1900-10-29 00:00:00 ET 34.8000 -69.3000 45 hurdat_atl main 572 572 O_____________ hurdat_atl AL071900 34.8000 -69.3000 EX 45 -4 37 28
1900297N15296 1900 39 NA NA NOT_NAMED 1900-10-29 03:00:00 ET 36.3835 -68.3077 main 604 477 P_____________ AL071900 36.3835 -68.3077 EX 45 -4 36 27
1900297N15296 1900 39 NA NA NOT_NAMED 1900-10-29 06:00:00 ET 38.0000 -67.3000 45 hurdat_atl main 471 395 O_____________ hurdat_atl AL071900 38.0000 -67.3000 EX 45 -4 38 27
1900297N15296 1900 39 NA NA NOT_NAMED 1900-10-29 09:00:00 ET 39.7277 -66.1486 main 396 234 P_____________ AL071900 39.7277 -66.1486 EX 45 -4 39 27
1900297N15296 1900 39 NA NA NOT_NAMED 1900-10-29 12:00:00 ET 41.5000 -65.0000 45 hurdat_atl main 223 92 O_____________ hurdat_atl AL071900 41.5000 -65.0000 EX 45 -4 39 25
1900297N15296 1900 39 NA NA NOT_NAMED 1900-10-29 15:00:00 ET 43.2580 -63.9710 main 84 0 P_____________ AL071900 43.2580 -63.9710 EX 45 -4 38 23
1900297N15296 1900 39 NA NA NOT_NAMED 1900-10-29 18:00:00 ET 45.0000 -63.0000 45 hurdat_atl main 0 O_____________ hurdat_atl AL071900 45.0000 -63.0000 EX 45 -4 37 22

About IBTrACS Database

This database is a web-friendly format of International Best Track Archive for Climate Stewardship (IBTrACS), a global best track data archive curated by NOAA dating back to 1842.

Updated: 2021-10-21